Time;durP1;ratioP1;P1;durP2;ratioP2;P2;SDS_P1;SDS_P2;PMS_P1;PMS_P2;Temp;Humidity;BMP_temperature;BMP_pressure;BME280_temperature;BME280_humidity;BME280_pressure;Samples;Min_cycle;Max_cycle;Signal;HPM_P1;HPM_P2
2023/03/25 00:00:57;;;;;;;6.38;1.58;;;;;;;8.75;100.00;-18263.75;5003752;28;20049;-85
2023/03/25 00:03:37;;;;;;;5.13;1.73;;;;;;;8.71;100.00;-18262.50;5003978;28;20048;-86
2023/03/25 00:06:04;;;;;;;;;;;;;;;8.74;100.00;-18263.47;5004004;28;20049;-86
2023/03/25 00:08:29;;;;;;;6.50;1.65;;;;;;;8.66;100.00;-18261.28;5009825;28;19920;-86
2023/03/25 00:10:58;;;;;;;5.25;1.33;;;;;;;8.71;100.00;-18262.63;5014864;28;20034;-86
2023/03/25 00:13:24;;;;;;;4.90;1.60;;;;;;;8.78;100.00;-18264.44;5017624;28;20103;-86
2023/03/25 00:15:57;;;;;;;5.28;1.80;;;;;;;8.77;100.00;-18264.16;5028927;28;20045;-85
2023/03/25 00:18:24;;;;;;;6.68;1.70;;;;;;;8.71;100.00;-18262.63;5024875;28;20095;-85
2023/03/25 00:20:51;;;;;;;3.22;1.23;;;;;;;8.65;100.00;-18260.84;5011004;28;20087;-86
2023/03/25 00:23:19;;;;;;;3.25;1.55;;;;;;;8.68;100.00;-18261.81;5023039;28;20042;-85
2023/03/25 00:25:44;;;;;;;6.30;1.70;;;;;;;8.74;100.00;-18263.47;5009150;28;20075;-85
2023/03/25 00:28:11;;;;;;;5.13;1.70;;;;;;;8.72;100.00;-18262.91;5003583;28;20034;-86
2023/03/25 00:30:37;;;;;;;5.18;1.27;;;;;;;8.73;100.00;-18263.19;5018502;28;20034;-85
2023/03/25 00:33:03;;;;;;;6.28;1.92;;;;;;;8.72;100.00;-18262.91;5027228;28;20047;-86
2023/03/25 00:35:28;;;;;;;3.97;1.23;;;;;;;8.71;100.00;-18262.50;5009337;28;20122;-86
2023/03/25 00:38:01;;;;;;;6.75;1.80;;;;;;;8.76;100.00;-18264.00;5001738;28;20417;-85
2023/03/25 00:40:29;;;;;;;6.75;1.42;;;;;;;8.71;100.00;-18262.50;5012627;28;20038;-86
2023/03/25 00:42:55;;;;;;;8.13;1.85;;;;;;;8.73;100.00;-18263.06;5012407;28;20116;-85
2023/03/25 00:45:20;;;;;;;8.30;2.10;;;;;;;8.72;100.00;-18262.78;5023774;28;20116;-86
2023/03/25 00:47:46;;;;;;;7.43;2.08;;;;;;;8.73;100.00;-18263.19;5015280;28;20493;-85
2023/03/25 00:50:12;;;;;;;5.78;1.77;;;;;;;8.76;100.00;-18264.00;5012142;28;20680;-86
2023/03/25 00:52:37;;;;;;;7.55;2.40;;;;;;;8.77;100.00;-18264.28;5008123;28;20042;-85
2023/03/25 00:55:03;;;;;;;6.03;2.53;;;;;;;8.77;100.00;-18264.16;5013206;28;20406;-85
2023/03/25 00:57:29;;;;;;;4.47;1.70;;;;;;;8.70;100.00;-18262.22;5010949;28;20045;-85
2023/03/25 00:59:55;;;;;;;7.35;1.70;;;;;;;8.70;100.00;-18262.38;5009950;28;20042;-84
2023/03/25 01:02:21;;;;;;;5.75;1.90;;;;;;;8.77;100.00;-18264.16;5006298;28;20098;-85
2023/03/25 01:04:48;;;;;;;5.70;1.73;;;;;;;8.76;100.00;-18263.88;5011779;28;20038;-85
2023/03/25 01:07:18;;;;;;;6.53;1.98;;;;;;;8.76;100.00;-18264.00;5002170;28;20053;-84
2023/03/25 01:09:45;;;;;;;6.40;1.85;;;;;;;8.77;100.00;-18264.16;5009983;28;20033;-84
2023/03/25 01:12:12;;;;;;;6.75;1.70;;;;;;;8.78;100.00;-18264.56;5012537;28;20038;-84
2023/03/25 01:14:37;;;;;;;8.95;2.40;;;;;;;8.79;100.00;-18264.84;5025237;28;20049;-85
2023/03/25 01:17:03;;;;;;;4.82;1.38;;;;;;;8.81;100.00;-18265.41;5003525;28;20050;-84
2023/03/25 01:19:29;;;;;;;6.72;1.75;;;;;;;8.78;100.00;-18264.56;5009577;28;20041;-84
2023/03/25 01:21:55;;;;;;;8.45;2.08;;;;;;;8.80;100.00;-18264.97;4995187;28;20409;-84
2023/03/25 01:24:20;;;;;;;9.85;2.25;;;;;;;8.81;100.00;-18265.41;5007258;28;20047;-85
2023/03/25 01:26:45;;;;;;;10.48;2.20;;;;;;;8.79;100.00;-18264.84;5007395;28;20103;-86
2023/03/25 01:29:16;;;;;;;7.45;1.42;;;;;;;8.81;100.00;-18265.25;5010971;28;20065;-84
2023/03/25 01:31:42;;;;;;;5.90;1.52;;;;;;;8.82;100.00;-18265.66;4997448;28;20133;-86
2023/03/25 01:34:08;;;;;;;6.32;1.40;;;;;;;8.84;100.00;-18265.94;4992619;28;20576;-84
2023/03/25 01:36:35;;;;;;;7.57;2.03;;;;;;;8.84;100.00;-18265.94;5013509;28;20129;-85
2023/03/25 01:39:01;;;;;;;5.18;2.10;;;;;;;8.86;100.00;-18266.63;5006077;28;20074;-85
2023/03/25 01:41:28;;;;;;;6.65;1.48;;;;;;;8.85;100.00;-18266.22;5010626;28;20045;-85
2023/03/25 01:44:06;;;;;;;16.98;2.33;;;;;;;8.86;100.00;-18266.50;4999386;28;20042;-85
2023/03/25 01:46:33;;;;;;;6.43;1.85;;;;;;;8.82;100.00;-18265.66;5016000;28;20739;-86
2023/03/25 01:49:01;;;;;;;8.93;2.08;;;;;;;8.90;100.00;-18267.59;4996301;28;20041;-85
2023/03/25 01:51:34;;;;;;;7.40;1.58;;;;;;;8.82;100.00;-18265.53;5012236;28;20405;-85
2023/03/25 01:53:59;;;;;;;7.53;1.98;;;;;;;8.84;100.00;-18265.94;5004712;28;20036;-85
2023/03/25 01:56:30;;;;;;;9.73;1.50;;;;;;;8.81;100.00;-18265.25;5010866;28;20034;-84
2023/03/25 01:58:58;;;;;;;6.38;1.70;;;;;;;8.86;100.00;-18266.50;5005557;28;20040;-85
2023/03/25 02:01:25;;;;;;;6.53;1.85;;;;;;;8.84;100.00;-18266.09;5024243;28;20095;-85
2023/03/25 02:03:53;;;;;;;6.95;1.60;;;;;;;8.87;100.00;-18266.91;4998312;28;20041;-85
2023/03/25 02:06:32;;;;;;;5.13;1.65;;;;;;;8.82;100.00;-18265.53;5008759;28;20038;-85
2023/03/25 02:09:00;;;;;;;6.73;1.87;;;;;;;8.85;100.00;-18266.22;5007159;28;20042;-85
2023/03/25 02:11:28;;;;;;;9.35;1.73;;;;;;;8.82;100.00;-18265.66;5003171;28;20528;-85
2023/03/25 02:13:57;;;;;;;7.53;2.13;;;;;;;8.83;100.00;-18265.81;5002868;28;20046;-85
2023/03/25 02:16:33;;;;;;;6.13;1.65;;;;;;;8.85;100.00;-18266.34;4992044;28;20049;-84
2023/03/25 02:19:32;;;;;;;7.55;1.45;;;;;;;8.86;100.00;-18266.50;5002148;28;20037;-85
2023/03/25 02:22:13;;;;;;;;;;;;;;;8.83;100.00;-18265.81;5020075;28;20034;-84
2023/03/25 02:25:06;;;;;;;10.10;2.00;;;;;;;8.74;100.00;-18263.47;5013121;28;19921;-85
2023/03/25 02:28:00;;;;;;;5.97;1.60;;;;;;;8.76;100.00;-18264.00;4999678;28;20042;-85
2023/03/25 02:30:40;;;;;;;7.05;1.40;;;;;;;8.79;100.00;-18264.84;5003046;28;20123;-85
2023/03/25 02:33:29;;;;;;;7.32;1.77;;;;;;;8.85;100.00;-18266.22;4999160;28;20046;-85
2023/03/25 02:36:13;;;;;;;5.80;1.38;;;;;;;8.79;100.00;-18264.72;4999300;28;20041;-84
2023/03/25 02:38:45;;;;;;;10.27;1.33;;;;;;;8.90;100.00;-18267.59;5004710;28;20042;-84
2023/03/25 02:41:20;;;;;;;12.20;2.10;;;;;;;8.95;100.00;-18268.97;5006818;28;20054;-84
2023/03/25 02:43:55;;;;;;;7.40;1.63;;;;;;;8.96;100.00;-18269.25;5005877;28;20057;-85
2023/03/25 02:46:24;;;;;;;5.80;1.42;;;;;;;8.98;100.00;-18269.81;5007966;28;20584;-85
2023/03/25 02:49:14;;;;;;;6.53;2.03;;;;;;;9.02;100.00;-18271.03;5010086;28;20529;-85
2023/03/25 02:51:48;;;;;;;8.95;1.92;;;;;;;8.80;100.00;-18264.97;5026672;28;20054;-86
2023/03/25 02:54:15;;;;;;;7.30;1.73;;;;;;;8.78;100.00;-18264.56;5012192;28;20408;-86
2023/03/25 02:56:46;;;;;;;5.70;1.83;;;;;;;8.79;100.00;-18264.72;5012025;28;20038;-85
2023/03/25 02:59:15;;;;;;;6.30;1.77;;;;;;;8.79;100.00;-18264.72;5002819;28;20073;-86
2023/03/25 03:01:41;;;;;;;8.02;1.95;;;;;;;8.84;100.00;-18265.94;5006223;28;20121;-86
2023/03/25 03:04:07;;;;;;;8.20;2.22;;;;;;;8.81;100.00;-18265.41;5004751;28;20038;-85
2023/03/25 03:06:41;;;;;;;6.35;1.70;;;;;;;8.84;100.00;-18265.94;5002956;28;20495;-86
2023/03/25 03:09:34;;;;;;;5.90;1.77;;;;;;;8.79;100.00;-18264.72;5007434;28;20520;-85
2023/03/25 03:12:31;;;;;;;8.35;2.13;;;;;;;8.78;100.00;-18264.56;5008052;28;20048;-84
2023/03/25 03:15:05;;;;;;;7.00;2.03;;;;;;;8.78;100.00;-18264.56;5008768;28;20125;-85
2023/03/25 03:17:48;;;;;;;9.55;2.10;;;;;;;8.73;100.00;-18263.19;5013229;28;20124;-85
2023/03/25 03:20:18;;;;;;;6.45;2.47;;;;;;;8.73;100.00;-18263.19;5008658;28;20046;-84
2023/03/25 03:23:04;;;;;;;;;;;;;;;8.76;100.00;-18263.88;5006143;28;20050;-85
2023/03/25 03:25:33;;;;;;;7.35;2.13;;;;;;;8.50;100.00;-18256.88;5009960;28;19921;-84
2023/03/25 03:28:24;;;;;;;7.97;1.83;;;;;;;8.52;100.00;-18257.56;5004440;28;20074;-85
2023/03/25 03:31:15;;;;;;;9.15;2.70;;;;;;;8.56;100.00;-18258.66;5004569;28;20413;-85
2023/03/25 03:34:01;;;;;;;5.93;2.20;;;;;;;8.49;100.00;-18256.72;4987187;28;20045;-84
2023/03/25 03:36:33;;;;;;;7.07;2.00;;;;;;;8.53;100.00;-18257.69;5005492;28;20133;-85
2023/03/25 03:39:06;;;;;;;6.60;1.98;;;;;;;8.52;100.00;-18257.41;5002410;28;20497;-84
2023/03/25 03:41:35;;;;;;;6.30;1.60;;;;;;;8.56;100.00;-18258.66;5008724;28;20136;-84
2023/03/25 03:44:07;;;;;;;8.07;2.30;;;;;;;8.60;100.00;-18259.63;5011518;28;20058;-85
2023/03/25 03:46:42;;;;;;;5.40;1.83;;;;;;;8.55;100.00;-18258.38;5014949;28;20045;-85
2023/03/25 03:49:12;;;;;;;5.32;1.73;;;;;;;8.60;100.00;-18259.63;5006041;28;20402;-84
2023/03/25 03:51:45;;;;;;;7.07;1.77;;;;;;;8.67;100.00;-18261.53;5008400;28;20550;-84
2023/03/25 03:54:11;;;;;;;5.32;2.03;;;;;;;8.64;100.00;-18260.56;5007399;28;20042;-84
2023/03/25 03:56:45;;;;;;;5.97;1.98;;;;;;;8.68;100.00;-18261.69;5005575;28;20053;-85
2023/03/25 03:59:16;;;;;;;4.38;2.00;;;;;;;8.63;100.00;-18260.31;5009427;28;20033;-85
2023/03/25 04:01:46;;;;;;;6.57;2.13;;;;;;;8.60;100.00;-18259.63;5016534;28;20413;-84
2023/03/25 04:04:17;;;;;;;7.57;2.13;;;;;;;8.58;100.00;-18259.06;5015130;28;20053;-84
2023/03/25 04:06:50;;;;;;;6.90;1.92;;;;;;;8.53;100.00;-18257.69;5017428;28;20038;-86
2023/03/25 04:09:26;;;;;;;6.47;2.28;;;;;;;8.39;100.00;-18253.84;5008935;28;20053;-85
2023/03/25 04:12:02;;;;;;;5.22;2.05;;;;;;;8.30;100.00;-18251.63;5003737;28;20092;-85
2023/03/25 04:14:29;;;;;;;6.57;2.08;;;;;;;8.25;100.00;-18250.25;5003243;28;20125;-85
2023/03/25 04:16:54;;;;;;;7.20;2.20;;;;;;;8.20;100.00;-18248.72;5010721;28;20060;-85
2023/03/25 04:19:20;;;;;;;7.35;2.13;;;;;;;8.12;100.00;-18246.66;5010704;28;20509;-85
2023/03/25 04:21:46;;;;;;;5.88;2.00;;;;;;;8.13;100.00;-18246.94;5015880;28;20052;-85
2023/03/25 04:24:15;;;;;;;5.13;1.95;;;;;;;8.13;100.00;-18247.09;5008415;28;20045;-85
2023/03/25 04:26:42;;;;;;;7.13;2.92;;;;;;;8.20;100.00;-18248.88;5009095;28;20522;-85
2023/03/25 04:29:08;;;;;;;5.13;2.03;;;;;;;8.21;100.00;-18249.16;5009110;28;20052;-86
2023/03/25 04:31:34;;;;;;;5.82;2.58;;;;;;;8.22;100.00;-18249.41;5008929;28;20058;-86
2023/03/25 04:34:01;;;;;;;10.88;2.67;;;;;;;8.23;100.00;-18249.56;5008536;28;20041;-85
2023/03/25 04:36:36;;;;;;;6.47;2.28;;;;;;;8.23;100.00;-18249.56;5004251;28;20052;-85
2023/03/25 04:39:02;;;;;;;9.73;2.15;;;;;;;8.19;100.00;-18248.47;5002210;28;20047;-85
2023/03/25 04:41:28;;;;;;;9.70;2.38;;;;;;;8.13;100.00;-18246.94;5007440;28;20117;-86
2023/03/25 04:43:53;;;;;;;7.20;2.30;;;;;;;8.19;100.00;-18248.59;5005765;28;20103;-85
2023/03/25 04:46:18;;;;;;;6.07;2.03;;;;;;;8.17;100.00;-18248.03;5007768;28;20129;-85
2023/03/25 04:48:46;;;;;;;5.95;2.60;;;;;;;8.22;100.00;-18249.41;5009806;28;20380;-85
2023/03/25 04:51:12;;;;;;;11.68;2.92;;;;;;;8.20;100.00;-18248.88;5007277;28;20108;-84
2023/03/25 04:53:38;;;;;;;9.23;2.97;;;;;;;8.22;100.00;-18249.28;5010883;28;20038;-86
2023/03/25 04:56:06;;;;;;;8.90;2.55;;;;;;;8.22;100.00;-18249.41;5007632;28;20409;-85
2023/03/25 04:58:32;;;;;;;5.50;2.35;;;;;;;8.14;100.00;-18247.34;5002752;28;20046;-85
2023/03/25 05:01:04;;;;;;;7.10;2.47;;;;;;;8.21;100.00;-18249.00;5004036;28;20061;-86
2023/03/25 05:03:32;;;;;;;6.35;2.00;;;;;;;8.13;100.00;-18246.94;5010254;28;20124;-86
2023/03/25 05:05:57;;;;;;;7.75;2.78;;;;;;;8.12;100.00;-18246.66;5004379;28;20042;-85
2023/03/25 05:08:23;;;;;;;7.68;2.55;;;;;;;8.15;100.00;-18247.50;5018565;28;20115;-85
2023/03/25 05:10:49;;;;;;;8.23;2.40;;;;;;;8.16;100.00;-18247.78;5011099;28;20038;-85
2023/03/25 05:13:14;;;;;;;5.40;2.08;;;;;;;8.15;100.00;-18247.50;5011921;28;20042;-85
2023/03/25 05:15:39;;;;;;;9.15;2.42;;;;;;;8.12;100.00;-18246.66;5010286;28;20077;-85
2023/03/25 05:18:13;;;;;;;8.98;2.65;;;;;;;8.12;100.00;-18246.66;5008301;28;20289;-84
2023/03/25 05:20:41;;;;;;;7.00;3.13;;;;;;;8.08;100.00;-18245.56;5016586;28;20065;-86
2023/03/25 05:23:17;;;;;;;8.63;2.88;;;;;;;8.11;100.00;-18246.53;5005924;28;20041;-85
2023/03/25 05:25:50;;;;;;;10.00;2.30;;;;;;;8.13;100.00;-18246.94;5008686;28;20072;-85
2023/03/25 05:28:16;;;;;;;9.82;3.25;;;;;;;8.10;100.00;-18246.13;5010651;28;20046;-85
2023/03/25 05:30:44;;;;;;;8.18;2.55;;;;;;;8.12;100.00;-18246.81;5009178;28;20066;-85
2023/03/25 05:33:14;;;;;;;8.88;2.90;;;;;;;8.18;100.00;-18248.31;5031427;28;20038;-84
2023/03/25 05:35:39;;;;;;;7.45;2.88;;;;;;;8.14;100.00;-18247.22;5020255;28;20037;-85
2023/03/25 05:38:08;;;;;;;7.20;2.70;;;;;;;8.19;100.00;-18248.59;5010240;28;20327;-84
2023/03/25 05:40:35;;;;;;;9.60;3.05;;;;;;;8.16;100.00;-18247.63;5016300;28;20084;-86
2023/03/25 05:43:01;;;;;;;7.68;2.78;;;;;;;8.12;100.00;-18246.66;5017039;28;20049;-85
2023/03/25 05:45:27;;;;;;;8.23;2.75;;;;;;;8.19;100.00;-18248.47;5010305;28;20095;-85
2023/03/25 05:47:53;;;;;;;8.00;2.90;;;;;;;8.19;100.00;-18248.59;5012498;28;20502;-85
2023/03/25 05:50:18;;;;;;;9.70;2.88;;;;;;;8.15;100.00;-18247.50;5014215;28;20050;-84
2023/03/25 05:52:48;;;;;;;10.25;3.25;;;;;;;8.21;100.00;-18249.16;5008570;28;20038;-85
2023/03/25 05:55:16;;;;;;;10.85;3.03;;;;;;;8.16;100.00;-18247.63;5018234;28;20057;-85
2023/03/25 05:57:42;;;;;;;10.35;3.03;;;;;;;8.18;100.00;-18248.31;5011200;28;20041;-85
2023/03/25 06:00:09;;;;;;;6.72;3.15;;;;;;;8.29;100.00;-18251.22;5009622;28;20049;-85
2023/03/25 06:02:37;;;;;;;9.32;2.60;;;;;;;8.26;100.00;-18250.53;5004095;28;20053;-85
2023/03/25 06:05:05;;;;;;;8.80;2.97;;;;;;;8.27;100.00;-18250.66;5004145;28;20521;-85
2023/03/25 06:07:31;;;;;;;8.07;3.15;;;;;;;8.24;100.00;-18249.97;5010492;28;20778;-86
2023/03/25 06:09:56;;;;;;;9.52;2.47;;;;;;;8.25;100.00;-18250.25;5005062;28;20053;-85
2023/03/25 06:12:22;;;;;;;8.18;2.08;;;;;;;8.37;100.00;-18253.41;5007428;28;20114;-86
2023/03/25 06:14:52;;;;;;;9.05;2.83;;;;;;;8.35;100.00;-18252.88;5012438;28;20046;-84
2023/03/25 06:17:20;;;;;;;5.88;2.25;;;;;;;8.33;100.00;-18252.44;5010934;28;20047;-84
2023/03/25 06:19:46;;;;;;;9.02;1.98;;;;;;;8.30;100.00;-18251.63;5012885;28;20049;-85
2023/03/25 06:22:12;;;;;;;7.88;2.00;;;;;;;8.37;100.00;-18253.41;4999417;28;20058;-85
2023/03/25 06:24:39;;;;;;;7.68;2.17;;;;;;;8.39;100.00;-18253.97;5011253;28;20057;-85
2023/03/25 06:27:07;;;;;;;7.38;1.98;;;;;;;8.37;100.00;-18253.41;5008914;28;20501;-85
2023/03/25 06:29:35;;;;;;;3.67;1.38;;;;;;;8.36;100.00;-18253.28;5012822;28;20042;-84
2023/03/25 06:32:01;;;;;;;8.27;1.80;;;;;;;8.36;100.00;-18253.13;5006371;28;20038;-84
2023/03/25 06:34:27;;;;;;;8.82;2.10;;;;;;;8.40;100.00;-18254.09;5012125;28;20044;-85
2023/03/25 06:36:53;;;;;;;5.93;2.20;;;;;;;8.35;100.00;-18252.88;5012078;28;20269;-85
2023/03/25 06:39:20;;;;;;;5.22;1.88;;;;;;;8.28;100.00;-18250.94;5003417;28;20053;-84
2023/03/25 06:41:45;;;;;;;5.43;2.00;;;;;;;8.29;100.00;-18251.34;5006730;28;20054;-85
2023/03/25 06:44:11;;;;;;;4.60;2.20;;;;;;;8.25;100.00;-18250.25;5007882;28;20521;-84
2023/03/25 06:46:37;;;;;;;8.10;1.90;;;;;;;8.26;100.00;-18250.38;5018117;28;20133;-84
2023/03/25 06:49:02;;;;;;;7.78;2.65;;;;;;;8.21;100.00;-18249.16;5014159;28;20140;-85
2023/03/25 06:51:27;;;;;;;9.80;2.67;;;;;;;8.16;100.00;-18247.78;5019944;28;20106;-85
2023/03/25 06:53:53;;;;;;;7.05;2.13;;;;;;;8.20;100.00;-18248.88;5014429;28;20045;-85
2023/03/25 06:56:18;;;;;;;4.88;2.20;;;;;;;8.24;100.00;-18249.97;5016340;28;20049;-85
2023/03/25 06:58:45;;;;;;;6.82;2.45;;;;;;;8.21;100.00;-18249.16;5008870;28;20425;-85
2023/03/25 07:01:10;;;;;;;7.72;2.50;;;;;;;8.17;100.00;-18247.91;5007113;28;20101;-86
2023/03/25 07:03:36;;;;;;;6.88;2.63;;;;;;;8.14;100.00;-18247.34;5010609;28;20081;-84
2023/03/25 07:06:03;;;;;;;6.15;2.03;;;;;;;8.14;100.00;-18247.22;5003000;28;20053;-85
2023/03/25 07:08:28;;;;;;;6.78;2.13;;;;;;;8.10;100.00;-18246.13;5001731;28;20692;-85
2023/03/25 07:11:00;;;;;;;8.43;2.55;;;;;;;8.16;100.00;-18247.78;5004023;28;20050;-85
2023/03/25 07:13:25;;;;;;;10.38;2.33;;;;;;;8.14;100.00;-18247.22;5002864;28;20034;-85
2023/03/25 07:15:54;;;;;;;7.70;2.42;;;;;;;8.17;100.00;-18248.03;4999594;28;20034;-85
2023/03/25 07:18:19;;;;;;;5.53;2.25;;;;;;;8.16;100.00;-18247.78;5002377;28;20033;-85
2023/03/25 07:20:45;;;;;;;7.22;2.20;;;;;;;8.20;100.00;-18248.88;5005231;28;20096;-86
2023/03/25 07:23:10;;;;;;;9.38;2.13;;;;;;;8.26;100.00;-18250.53;5009349;28;20101;-85
2023/03/25 07:25:36;;;;;;;8.18;2.92;;;;;;;8.29;100.00;-18251.34;5007393;28;20041;-85
2023/03/25 07:28:01;;;;;;;7.50;2.45;;;;;;;8.34;100.00;-18252.72;5004036;28;20100;-86
2023/03/25 07:30:26;;;;;;;6.80;2.00;;;;;;;8.30;100.00;-18251.63;5021793;28;20537;-85
2023/03/25 07:32:52;;;;;;;6.15;2.63;;;;;;;8.40;100.00;-18254.09;5004706;28;20041;-85
2023/03/25 07:35:17;;;;;;;10.50;2.50;;;;;;;8.41;100.00;-18254.38;5004189;28;20096;-85
2023/03/25 07:37:42;;;;;;;9.15;2.53;;;;;;;8.39;100.00;-18253.84;5007797;28;20061;-85
2023/03/25 07:40:08;;;;;;;9.23;3.08;;;;;;;8.45;100.00;-18255.63;5013622;28;20046;-85
2023/03/25 07:42:36;;;;;;;7.90;2.72;;;;;;;8.47;100.00;-18256.03;5005925;28;20042;-85
2023/03/25 07:45:02;;;;;;;10.88;3.20;;;;;;;8.49;100.00;-18256.59;5008484;28;20406;-84
2023/03/25 07:47:27;;;;;;;8.07;2.67;;;;;;;8.52;100.00;-18257.56;5004398;28;20044;-85
2023/03/25 07:49:52;;;;;;;9.68;2.40;;;;;;;8.53;100.00;-18257.81;5003175;28;20123;-84
2023/03/25 07:52:18;;;;;;;9.40;2.40;;;;;;;8.51;100.00;-18257.28;5002493;28;20039;-85
2023/03/25 07:54:43;;;;;;;7.18;2.47;;;;;;;8.58;100.00;-18259.06;5004901;28;20042;-86
2023/03/25 07:57:09;;;;;;;6.78;2.35;;;;;;;8.62;100.00;-18260.16;5002362;28;20042;-85
2023/03/25 07:59:35;;;;;;;9.90;3.20;;;;;;;8.69;100.00;-18262.09;5000779;28;20405;-85
2023/03/25 08:02:00;;;;;;;7.68;2.38;;;;;;;8.77;100.00;-18264.28;5002517;28;20132;-85
2023/03/25 08:04:25;;;;;;;8.88;2.78;;;;;;;8.80;100.00;-18264.97;5007350;28;20073;-85
2023/03/25 08:06:51;;;;;;;10.77;2.72;;;;;;;8.84;100.00;-18265.94;4998489;28;20046;-85
2023/03/25 08:09:16;;;;;;;11.13;3.17;;;;;;;8.89;100.00;-18267.31;5005127;28;20509;-86
2023/03/25 08:14:55;;;;;;;7.22;1.75;;;;;;;8.79;100.00;-18264.84;4925113;28;20129;-85
2023/03/25 08:17:22;;;;;;;7.85;2.88;;;;;;;8.84;100.00;-18265.94;4942914;28;20451;-86
2023/03/25 08:19:47;;;;;;;5.93;2.10;;;;;;;8.90;100.00;-18267.72;4969067;28;20046;-86
2023/03/25 08:22:12;;;;;;;6.63;2.30;;;;;;;8.98;100.00;-18269.81;5004558;28;20305;-86
2023/03/25 08:24:38;;;;;;;8.38;2.90;;;;;;;8.88;100.00;-18267.03;4998340;28;20485;-86
2023/03/25 08:27:03;;;;;;;9.20;2.78;;;;;;;8.88;100.00;-18267.03;5004665;28;20054;-86
2023/03/25 08:29:33;;;;;;;7.28;2.92;;;;;;;8.94;100.00;-18268.84;4997245;28;20240;-86
2023/03/25 08:31:58;;;;;;;10.75;2.50;;;;;;;8.98;100.00;-18269.81;4998373;28;20042;-85
2023/03/25 08:34:24;;;;;;;11.98;3.15;;;;;;;8.97;100.00;-18269.53;5005622;28;20652;-86
2023/03/25 08:36:49;;;;;;;13.50;2.13;;;;;;;8.92;100.00;-18268.16;5001262;28;20117;-86
2023/03/25 08:39:16;;;;;;;9.10;2.63;;;;;;;8.98;100.00;-18269.94;5005559;28;20038;-86
2023/03/25 08:41:42;;;;;;;7.40;2.30;;;;;;;9.06;100.00;-18271.84;5003714;28;20049;-86
2023/03/25 08:44:08;;;;;;;6.97;2.22;;;;;;;9.07;100.00;-18272.28;5004878;28;20129;-86
2023/03/25 08:46:33;;;;;;;10.52;2.50;;;;;;;9.09;100.00;-18272.69;5001798;28;20129;-86
2023/03/25 08:48:58;;;;;;;6.38;2.17;;;;;;;9.03;100.00;-18271.16;5025018;28;20073;-86
2023/03/25 08:53:51;;;;;;;8.82;2.05;;;;;;;9.07;100.00;-18272.13;5001464;28;20045;-86
2023/03/25 08:56:17;;;;;;;9.35;2.85;;;;;;;9.09;100.00;-18272.69;5006942;28;20046;-85
2023/03/25 08:58:42;;;;;;;8.43;2.90;;;;;;;8.99;100.00;-18270.06;5008320;28;20135;-85
2023/03/25 09:01:08;;;;;;;9.88;3.40;;;;;;;8.81;100.00;-18265.41;5008411;28;20074;-85
2023/03/25 09:03:36;;;;;;;11.18;3.13;;;;;;;8.66;100.00;-18261.28;5008537;28;20049;-85
2023/03/25 09:06:05;;;;;;;12.90;3.67;;;;;;;8.61;100.00;-18259.75;5021127;28;20509;-85
2023/03/25 09:08:32;;;;;;;16.38;3.40;;;;;;;8.50;100.00;-18256.88;5007186;28;20053;-85
2023/03/25 09:10:57;;;;;;;11.75;3.50;;;;;;;8.51;100.00;-18257.28;5007650;28;20048;-85
2023/03/25 09:13:22;;;;;;;9.88;3.42;;;;;;;8.56;100.00;-18258.50;5006302;28;20038;-84
2023/03/25 09:15:48;;;;;;;12.68;4.60;;;;;;;8.61;100.00;-18259.88;5007633;28;20045;-85
2023/03/25 09:18:13;;;;;;;11.10;3.97;;;;;;;8.69;100.00;-18261.94;5008762;28;20129;-85
2023/03/25 09:20:40;;;;;;;10.55;2.88;;;;;;;8.63;100.00;-18260.44;5006512;28;20535;-85
2023/03/25 09:23:05;;;;;;;7.75;2.75;;;;;;;8.55;100.00;-18258.25;5007839;28;20052;-85
2023/03/25 09:25:31;;;;;;;12.60;4.43;;;;;;;8.48;100.00;-18256.31;5009150;28;20113;-85
2023/03/25 09:27:57;;;;;;;13.18;4.13;;;;;;;8.46;100.00;-18255.75;4999816;28;20494;-85
2023/03/25 09:30:22;;;;;;;16.75;4.60;;;;;;;8.49;100.00;-18256.59;5010140;28;20076;-85
2023/03/25 09:32:47;;;;;;;11.18;3.92;;;;;;;8.53;100.00;-18257.69;5008444;28;20112;-85
2023/03/25 09:35:13;;;;;;;12.68;4.38;;;;;;;8.62;100.00;-18260.16;5009276;28;20040;-85
2023/03/25 09:37:38;;;;;;;11.95;4.53;;;;;;;8.64;100.00;-18260.56;5008517;28;20049;-85
2023/03/25 09:40:04;;;;;;;8.80;3.38;;;;;;;8.60;100.00;-18259.63;5006120;28;20490;-85
2023/03/25 09:42:41;;;;;;;13.18;4.60;;;;;;;8.73;100.00;-18263.06;5004709;28;20042;-85
2023/03/25 09:45:32;;;;;;;14.77;4.57;;;;;;;8.85;100.00;-18266.22;5005331;28;20108;-85
2023/03/25 09:48:21;;;;;;;14.93;3.85;;;;;;;8.83;100.00;-18265.81;5009410;28;20033;-85
2023/03/25 09:50:47;;;;;;;8.48;3.33;;;;;;;8.76;100.00;-18263.88;5003146;28;20087;-85
2023/03/25 09:53:34;;;;;;;10.65;3.67;;;;;;;8.74;100.00;-18263.31;5001944;28;20038;-85
2023/03/25 09:56:01;;;;;;;13.25;4.60;;;;;;;8.70;100.00;-18262.22;5004419;28;20049;-86
2023/03/25 09:58:36;;;;;;;12.43;4.65;;;;;;;8.67;100.00;-18261.53;5006819;28;20052;-85
2023/03/25 10:01:07;;;;;;;11.10;3.40;;;;;;;8.60;100.00;-18259.63;5003972;28;20041;-85
2023/03/25 10:03:58;;;;;;;12.32;4.13;;;;;;;8.64;100.00;-18260.72;5004019;28;20408;-85
2023/03/25 10:06:25;;;;;;;13.88;4.95;;;;;;;8.73;100.00;-18263.19;5004002;28;20133;-85
2023/03/25 10:08:57;;;;;;;12.32;5.28;;;;;;;8.78;100.00;-18264.44;5003853;28;20571;-85
2023/03/25 10:11:30;;;;;;;12.95;4.82;;;;;;;8.95;100.00;-18268.97;5016650;28;20595;-85
2023/03/25 10:14:04;;;;;;;13.85;4.20;;;;;;;9.07;100.00;-18272.13;5003468;28;20030;-85
2023/03/25 10:16:44;;;;;;;13.40;4.65;;;;;;;9.15;100.00;-18274.34;5006198;28;20053;-85
2023/03/25 10:19:22;;;;;;;20.60;4.35;;;;;;;9.26;100.00;-18277.34;5006200;28;20601;-85
2023/03/25 10:22:35;;;;;;;15.07;4.50;;;;;;;9.37;100.00;-18280.38;4988569;28;20057;-85
2023/03/25 10:25:12;;;;;;;8.90;2.75;;;;;;;9.43;100.00;-18281.91;4977430;28;21076;-84
2023/03/25 10:27:41;;;;;;;7.57;3.15;;;;;;;9.51;100.00;-18284.09;5002607;28;20133;-85
2023/03/25 10:30:29;;;;;;;8.48;2.22;;;;;;;9.60;100.00;-18286.56;5004709;28;20668;-85
2023/03/25 10:32:57;;;;;;;12.60;3.65;;;;;;;9.79;100.00;-18291.53;4999294;28;20053;-85
2023/03/25 10:35:26;;;;;;;9.07;3.08;;;;;;;10.01;100.00;-18297.56;5005028;28;20085;-85
2023/03/25 10:37:57;;;;;;;9.75;3.08;;;;;;;10.11;100.00;-18300.19;5004580;28;20046;-84
2023/03/25 10:40:38;;;;;;;11.40;3.33;;;;;;;10.18;100.00;-18302.09;4991275;28;20046;-85
2023/03/25 10:43:22;;;;;;;9.18;2.50;;;;;;;10.15;100.00;-18301.41;5003374;28;20075;-85
2023/03/25 10:45:50;;;;;;;10.95;3.70;;;;;;;10.10;100.00;-18300.06;4996448;28;20164;-85
2023/03/25 10:48:26;;;;;;;9.30;2.30;;;;;;;9.91;100.00;-18294.97;5003204;28;20491;-85
2023/03/25 10:51:00;;;;;;;10.63;3.17;;;;;;;9.89;100.00;-18294.41;5001966;28;20074;-85
2023/03/25 10:53:27;;;;;;;8.32;2.40;;;;;;;9.79;100.00;-18291.66;4995935;28;20049;-84
2023/03/25 10:56:06;;;;;;;7.32;1.77;;;;;;;9.76;100.00;-18290.69;5003951;28;20050;-85
2023/03/25 10:58:32;;;;;;;;;;;;;;;9.81;100.00;-18292.06;5017511;28;20057;-84
2023/03/25 11:01:00;;;;;;;9.80;3.30;;;;;;;9.86;100.00;-18293.59;5003231;28;20399;-85
2023/03/25 11:03:33;;;;;;;11.63;3.35;;;;;;;10.06;100.00;-18298.94;5002032;28;20038;-85
2023/03/25 11:05:59;;;;;;;11.00;2.80;;;;;;;10.14;100.00;-18301.16;5001135;28;20513;-85
2023/03/25 11:08:24;;;;;;;11.27;3.30;;;;;;;10.22;100.00;-18303.22;5001475;28;20112;-85
2023/03/25 11:10:55;;;;;;;13.68;3.83;;;;;;;10.38;100.00;-18307.63;5001302;28;20060;-85
2023/03/25 11:13:26;;;;;;;10.80;3.40;;;;;;;10.50;100.00;-18310.63;4998625;28;20436;-85
2023/03/25 11:15:58;;;;;;;9.60;2.65;;;;;;;10.43;100.00;-18308.84;5003648;28;20042;-85
2023/03/25 11:18:32;;;;;;;7.50;2.78;;;;;;;10.55;100.00;-18312.16;5003860;28;20042;-85
2023/03/25 11:21:10;;;;;;;9.32;2.92;;;;;;;10.77;100.00;-18318.06;5000458;28;20045;-85
2023/03/25 11:23:42;;;;;;;7.80;2.40;;;;;;;10.92;100.00;-18321.91;4998967;28;20057;-85
2023/03/25 11:26:12;;;;;;;14.20;3.75;;;;;;;10.98;100.00;-18323.56;5003236;28;20146;-85
2023/03/25 11:28:44;;;;;;;12.68;2.90;;;;;;;11.17;100.00;-18328.78;5001851;28;20042;-85
2023/03/25 11:31:15;;;;;;;11.85;3.40;;;;;;;11.11;100.00;-18326.97;5004049;28;20053;-85
2023/03/25 11:34:02;;;;;;;12.65;3.05;;;;;;;11.21;100.00;-18329.88;5001307;28;20049;-85
2023/03/25 11:36:30;;;;;;;9.77;2.72;;;;;;;11.19;100.00;-18329.19;5004749;28;20665;-86
2023/03/25 11:39:03;;;;;;;11.95;2.90;;;;;;;10.99;100.00;-18323.97;5005357;28;20048;-85
2023/03/25 11:41:32;;;;;;;7.43;2.60;;;;;;;10.84;100.00;-18319.84;5004196;28;20187;-85